Time;durP1;ratioP1;P1;durP2;ratioP2;P2;SDS_P1;SDS_P2;PMS_P1;PMS_P2;Temp;Humidity;BMP_temperature;BMP_pressure;BME280_temperature;BME280_humidity;BME280_pressure;Samples;Min_cycle;Max_cycle;Signal;HPM_P1;HPM_P2
2022/01/31 00:01:35;;;;;;;18.85;6.95;;;;;;;4.96;53.19;99022.66;5053372;28;20505;-73
2022/01/31 00:04:03;;;;;;;22.75;8.20;;;;;;;4.98;53.26;99026.84;5052154;28;20128;-74
2022/01/31 00:06:34;;;;;;;15.52;6.78;;;;;;;4.86;53.39;99042.56;5000859;28;20048;-78
2022/01/31 00:09:01;;;;;;;15.55;7.63;;;;;;;4.86;53.54;99035.56;5052553;28;20063;-75
2022/01/31 00:11:29;;;;;;;14.82;6.75;;;;;;;4.85;53.29;99030.44;5052017;28;20057;-74
2022/01/31 00:14:02;;;;;;;11.50;5.30;;;;;;;4.81;53.57;99049.88;5051474;28;20076;-73
2022/01/31 00:16:32;;;;;;;9.57;2.80;;;;;;;4.90;53.63;99054.50;5049703;28;20044;-73
2022/01/31 00:19:00;;;;;;;16.80;6.22;;;;;;;4.80;53.74;99038.56;5055076;28;20065;-72
2022/01/31 00:21:28;;;;;;;19.30;7.32;;;;;;;4.82;53.88;99041.09;5058991;28;20045;-72
2022/01/31 00:23:56;;;;;;;12.85;4.97;;;;;;;4.71;54.04;99058.34;5059116;28;20081;-70
2022/01/31 00:26:24;;;;;;;17.13;5.82;;;;;;;4.82;53.87;99059.41;5056064;28;20463;-73
2022/01/31 00:28:51;;;;;;;16.13;5.80;;;;;;;4.79;54.18;99057.84;5056778;28;20186;-72
2022/01/31 00:31:18;;;;;;;19.90;6.85;;;;;;;4.77;54.07;99055.34;5057602;28;20351;-74
2022/01/31 00:33:46;;;;;;;15.23;6.28;;;;;;;4.64;54.46;99038.78;5058264;28;20497;-73
2022/01/31 00:36:13;;;;;;;16.15;5.43;;;;;;;4.74;54.34;99045.06;5054072;28;20064;-69
2022/01/31 00:38:40;;;;;;;11.63;5.82;;;;;;;4.72;54.40;99051.34;5059653;28;20076;-73
2022/01/31 00:41:08;;;;;;;20.52;7.82;;;;;;;4.73;54.42;99056.47;5053546;28;20132;-75
2022/01/31 00:43:37;;;;;;;13.07;4.55;;;;;;;4.68;54.80;99061.19;5052799;28;20081;-72
2022/01/31 00:46:11;;;;;;;17.55;8.85;;;;;;;4.72;54.70;99057.41;5054077;28;20041;-71
2022/01/31 00:48:42;;;;;;;17.88;6.70;;;;;;;4.71;54.49;99067.97;5053591;28;20047;-70
2022/01/31 00:51:10;;;;;;;22.90;6.68;;;;;;;4.74;54.28;99049.47;5051519;28;20064;-71
2022/01/31 00:53:37;;;;;;;21.27;6.97;;;;;;;4.65;54.50;99071.84;5054810;28;20056;-73
2022/01/31 00:56:04;;;;;;;16.90;5.50;;;;;;;4.69;54.62;99096.03;5056023;28;20132;-72
2022/01/31 00:58:33;;;;;;;17.92;6.22;;;;;;;4.56;54.62;99088.16;5056721;28;20104;-72
2022/01/31 01:01:00;;;;;;;15.23;6.80;;;;;;;4.58;54.46;99081.03;5053201;28;20481;-70
2022/01/31 01:03:27;;;;;;;19.55;6.90;;;;;;;4.52;54.90;99091.88;5053204;28;20096;-71
2022/01/31 01:05:55;;;;;;;18.73;7.65;;;;;;;4.52;54.80;99089.28;5054032;28;20079;-72
2022/01/31 01:08:22;;;;;;;17.90;6.45;;;;;;;4.49;54.83;99084.28;5055607;28;20055;-72
2022/01/31 01:10:49;;;;;;;14.75;7.05;;;;;;;4.51;54.92;99074.53;5053918;28;20064;-69
2022/01/31 01:13:16;;;;;;;17.70;6.00;;;;;;;4.50;55.12;99088.53;5057346;28;20100;-73
2022/01/31 01:15:45;;;;;;;17.88;5.38;;;;;;;4.51;55.12;99085.00;5055263;28;20049;-73
2022/01/31 01:18:12;;;;;;;19.95;8.25;;;;;;;4.39;55.30;99084.88;5056404;28;20127;-70
2022/01/31 01:20:39;;;;;;;20.38;9.98;;;;;;;4.39;55.58;99082.25;5054459;28;20049;-72
2022/01/31 01:23:05;;;;;;;22.50;7.93;;;;;;;4.34;55.62;99083.47;5053704;28;20084;-71
2022/01/31 01:25:33;;;;;;;24.88;9.63;;;;;;;4.24;56.15;99069.34;5052170;28;20125;-72
2022/01/31 01:28:00;;;;;;;23.25;7.75;;;;;;;4.08;56.36;99096.47;5053771;28;20077;-71
2022/01/31 01:30:27;;;;;;;20.25;6.72;;;;;;;4.25;56.04;99071.00;5051271;28;20937;-73
2022/01/31 01:33:07;;;;;;;22.77;7.75;;;;;;;4.24;55.97;99078.03;5049417;28;20055;-70
2022/01/31 01:35:37;;;;;;;16.73;6.93;;;;;;;4.16;55.96;99093.34;5046173;28;20091;-75
2022/01/31 01:38:07;;;;;;;21.40;7.70;;;;;;;4.12;56.15;99097.13;5048380;28;20544;-72
2022/01/31 01:40:35;;;;;;;21.20;6.32;;;;;;;4.21;56.29;99086.06;5047403;28;20048;-71
2022/01/31 01:43:02;;;;;;;15.82;5.75;;;;;;;4.27;56.11;99095.28;5047202;28;20045;-69
2022/01/31 01:45:29;;;;;;;19.40;7.70;;;;;;;4.19;56.21;99088.78;5047305;28;20132;-71
2022/01/31 01:47:58;;;;;;;19.58;6.63;;;;;;;4.11;56.34;99103.28;5049569;28;20060;-72
2022/01/31 01:50:25;;;;;;;18.90;6.78;;;;;;;4.11;56.46;99100.69;5053265;28;20070;-71
2022/01/31 01:52:54;;;;;;;21.42;6.20;;;;;;;4.14;56.39;99082.16;5056669;28;20055;-70
2022/01/31 01:55:22;;;;;;;17.20;7.35;;;;;;;4.11;56.17;99087.63;5048413;28;20132;-71
2022/01/31 01:57:49;;;;;;;21.02;5.38;;;;;;;4.08;56.33;99083.41;5047846;28;20105;-70
2022/01/31 02:00:24;;;;;;;29.40;7.30;;;;;;;4.07;56.09;99091.34;5046919;28;20140;-70
2022/01/31 02:02:51;;;;;;;18.05;6.05;;;;;;;4.05;56.43;99086.22;5046676;28;20092;-70
2022/01/31 02:05:19;;;;;;;25.83;8.40;;;;;;;3.97;56.63;99076.25;5047749;28;20045;-72
2022/01/31 02:07:47;;;;;;;14.73;6.00;;;;;;;3.98;56.68;99087.53;5050474;28;20357;-72
2022/01/31 02:10:15;;;;;;;27.17;6.57;;;;;;;3.97;56.59;99070.19;5048425;28;20150;-72
2022/01/31 02:12:46;;;;;;;30.63;7.32;;;;;;;3.98;56.26;99071.84;5050390;28;20795;-75
2022/01/31 02:15:13;;;;;;;15.15;6.28;;;;;;;3.96;56.19;99081.56;5049630;28;20462;-76
2022/01/31 02:17:41;;;;;;;19.83;6.93;;;;;;;3.85;56.22;99077.03;5048587;28;20333;-76
2022/01/31 02:20:11;;;;;;;15.40;4.50;;;;;;;4.00;56.29;99075.25;5048516;28;20139;-74
2022/01/31 02:22:39;;;;;;;18.65;7.03;;;;;;;3.99;56.19;99071.75;5048289;28;20051;-73
2022/01/31 02:25:07;;;;;;;18.90;6.35;;;;;;;4.01;56.21;99080.34;5047725;28;20565;-73
2022/01/31 02:27:36;;;;;;;24.85;6.07;;;;;;;4.03;56.04;99069.78;5048070;28;20538;-73
2022/01/31 02:30:06;;;;;;;15.82;6.00;;;;;;;4.08;55.88;99072.13;5049832;28;20469;-74
2022/01/31 02:32:34;;;;;;;20.65;6.97;;;;;;;4.06;55.98;99074.84;5048776;28;20047;-73
2022/01/31 02:35:01;;;;;;;15.88;6.18;;;;;;;4.00;56.11;99073.47;5050609;28;20079;-73
2022/01/31 02:37:28;;;;;;;16.02;5.40;;;;;;;4.05;55.96;99062.69;5048405;28;20127;-74
2022/01/31 02:39:57;;;;;;;25.85;6.85;;;;;;;4.01;56.11;99067.28;5049858;28;20052;-70
2022/01/31 02:42:24;;;;;;;14.90;6.30;;;;;;;4.01;55.92;99062.06;5049638;28;20055;-74
2022/01/31 02:44:51;;;;;;;9.38;4.93;;;;;;;3.92;56.27;99061.81;5050994;28;20051;-73
2022/01/31 02:47:24;;;;;;;23.70;6.93;;;;;;;3.92;56.46;99072.25;5048699;28;20096;-74
2022/01/31 02:49:55;;;;;;;20.35;6.63;;;;;;;3.97;56.43;99071.03;5047982;28;20048;-70
2022/01/31 02:52:24;;;;;;;18.75;6.70;;;;;;;3.89;56.80;99085.50;5048328;28;20049;-72
2022/01/31 02:54:51;;;;;;;19.42;7.25;;;;;;;3.89;56.80;99075.94;5048302;28;20111;-72
2022/01/31 02:57:20;;;;;;;12.20;4.72;;;;;;;3.95;56.93;99082.53;5046949;28;20156;-73
2022/01/31 02:59:47;;;;;;;21.08;5.25;;;;;;;3.94;56.80;99081.69;5046544;28;20053;-71
2022/01/31 03:02:15;;;;;;;21.20;7.20;;;;;;;3.94;56.78;99079.09;5046241;28;20447;-72
2022/01/31 03:04:42;;;;;;;16.60;6.60;;;;;;;3.92;57.18;99087.94;5046294;28;20041;-73
2022/01/31 03:07:09;;;;;;;22.58;6.80;;;;;;;3.85;57.46;99077.03;5044596;28;20059;-75
2022/01/31 03:09:36;;;;;;;23.92;6.45;;;;;;;3.83;57.50;99094.59;5046135;28;20060;-72
2022/01/31 03:12:04;;;;;;;20.40;5.15;;;;;;;3.85;57.51;99091.88;5046220;28;20492;-71
2022/01/31 03:14:33;;;;;;;23.77;7.60;;;;;;;3.73;57.78;99091.72;5049082;28;20140;-75
2022/01/31 03:17:04;;;;;;;18.88;7.00;;;;;;;3.66;57.94;99106.09;5050837;28;20132;-73
2022/01/31 03:19:31;;;;;;;20.13;6.97;;;;;;;3.57;58.14;99094.44;5050339;28;20045;-73
2022/01/31 03:21:57;;;;;;;18.13;7.47;;;;;;;3.51;58.35;99105.28;5050039;28;20128;-75
2022/01/31 03:24:24;;;;;;;20.90;5.97;;;;;;;3.52;58.45;99112.16;5050898;28;20063;-73
2022/01/31 03:26:51;;;;;;;20.80;7.28;;;;;;;3.49;58.50;99098.47;5050170;28;20737;-73
2022/01/31 03:29:18;;;;;;;17.13;6.25;;;;;;;3.44;58.84;99110.03;5049108;28;20055;-74
2022/01/31 03:31:47;;;;;;;24.35;8.90;;;;;;;3.39;58.87;99106.03;5050310;28;20049;-74
2022/01/31 03:34:14;;;;;;;14.43;4.35;;;;;;;3.38;58.68;99109.56;5050782;28;20664;-74
2022/01/31 03:36:42;;;;;;;17.80;8.68;;;;;;;3.33;59.17;99094.22;5050706;28;20124;-76
2022/01/31 03:39:09;;;;;;;25.42;7.18;;;;;;;3.22;59.25;99110.53;5052195;28;20753;-71
2022/01/31 03:41:36;;;;;;;23.20;6.03;;;;;;;3.27;59.13;99104.16;5049485;28;20380;-72
2022/01/31 03:44:04;;;;;;;22.45;7.38;;;;;;;3.19;59.55;99100.25;5049515;28;20067;-72
2022/01/31 03:46:34;;;;;;;20.45;6.22;;;;;;;3.23;59.37;99109.56;5049775;28;20108;-74
2022/01/31 03:49:03;;;;;;;16.52;5.57;;;;;;;3.28;59.20;99111.06;5049643;28;20144;-71
2022/01/31 03:51:29;;;;;;;24.73;6.28;;;;;;;3.26;59.25;99100.72;5048547;28;20105;-71
2022/01/31 03:53:57;;;;;;;18.33;6.97;;;;;;;3.25;59.41;99094.66;5049953;28;20536;-70
2022/01/31 03:56:24;;;;;;;24.80;9.63;;;;;;;3.20;59.46;99083.66;5049811;28;20126;-72
2022/01/31 03:58:51;;;;;;;30.60;7.47;;;;;;;3.16;59.56;99084.78;5049826;28;20136;-71
2022/01/31 04:01:18;;;;;;;20.35;6.68;;;;;;;3.09;59.72;99067.81;5049115;28;20131;-74
2022/01/31 04:03:45;;;;;;;20.55;7.30;;;;;;;3.20;59.47;99075.00;5049327;28;20120;-75
2022/01/31 04:06:13;;;;;;;17.77;6.22;;;;;;;3.26;59.35;99087.69;5047355;28;20045;-72
2022/01/31 04:08:40;;;;;;;20.65;6.07;;;;;;;3.30;59.08;99072.69;5050346;28;20130;-71
2022/01/31 04:11:07;;;;;;;19.55;7.28;;;;;;;3.26;58.68;99066.81;5049291;28;20059;-71
2022/01/31 04:13:34;;;;;;;16.45;4.95;;;;;;;3.35;58.80;99074.06;5049223;28;20075;-73
2022/01/31 04:16:01;;;;;;;30.05;9.45;;;;;;;3.30;58.69;99065.69;5049271;28;20044;-73
2022/01/31 04:18:28;;;;;;;21.45;5.93;;;;;;;3.32;58.58;99071.63;5049082;28;20045;-73
2022/01/31 04:20:55;;;;;;;16.33;6.15;;;;;;;3.24;58.51;99069.50;5052717;28;20045;-71
2022/01/31 04:23:27;;;;;;;24.02;7.50;;;;;;;3.22;58.52;99063.53;5051155;28;20045;-72
2022/01/31 04:26:01;;;;;;;19.15;6.60;;;;;;;3.19;58.27;99057.69;5048419;28;20076;-74
2022/01/31 04:28:32;;;;;;;19.43;6.30;;;;;;;3.21;58.46;99051.41;5048774;28;20413;-72
2022/01/31 04:31:12;;;;;;;25.38;5.80;;;;;;;3.20;58.55;99059.34;5049138;28;20618;-74
2022/01/31 04:33:39;;;;;;;19.30;6.22;;;;;;;3.19;58.77;99057.69;5048114;28;20122;-72
2022/01/31 04:36:07;;;;;;;22.30;6.45;;;;;;;3.13;58.90;99055.44;5047431;28;20182;-73
2022/01/31 04:38:36;;;;;;;25.30;8.50;;;;;;;3.10;59.02;99058.22;5047846;28;20056;-71
2022/01/31 04:41:03;;;;;;;14.35;5.60;;;;;;;3.04;58.94;99049.00;5047379;28;20554;-72
2022/01/31 04:43:31;;;;;;;17.50;7.57;;;;;;;3.08;58.90;99039.22;5047748;28;20501;-72
2022/01/31 04:46:01;;;;;;;18.15;7.80;;;;;;;3.06;58.98;99060.16;5048168;28;20059;-70
2022/01/31 04:48:28;;;;;;;20.33;7.55;;;;;;;3.04;59.02;99041.16;5046950;28;20052;-72
2022/01/31 04:50:55;;;;;;;21.45;8.20;;;;;;;3.00;59.32;99048.34;5047838;28;20665;-71
2022/01/31 04:53:22;;;;;;;15.23;6.10;;;;;;;3.00;59.60;99047.50;5047209;28;20072;-72
2022/01/31 04:55:51;;;;;;;27.90;8.55;;;;;;;2.96;59.67;99053.84;5046947;28;20049;-70
2022/01/31 04:58:19;;;;;;;21.73;6.65;;;;;;;2.91;59.83;99043.69;5047071;28;20056;-70
2022/01/31 05:00:46;;;;;;;23.58;6.95;;;;;;;2.89;59.95;99036.91;5046392;28;20092;-71
2022/01/31 05:03:14;;;;;;;20.67;8.35;;;;;;;2.80;60.39;99046.09;5046785;28;20084;-70
2022/01/31 05:05:41;;;;;;;17.88;6.57;;;;;;;2.81;60.29;99043.41;5045067;28;20054;-70
2022/01/31 05:08:09;;;;;;;21.50;6.85;;;;;;;2.78;60.33;99038.38;5046270;28;20156;-70
2022/01/31 05:10:42;;;;;;;21.23;7.18;;;;;;;2.77;60.61;99035.84;5046965;28;20448;-71
2022/01/31 05:13:11;;;;;;;27.52;5.88;;;;;;;2.83;60.32;99035.50;5046746;28;20041;-69
2022/01/31 05:15:38;;;;;;;20.75;6.10;;;;;;;2.86;60.45;99035.28;5046366;28;20044;-71
2022/01/31 05:18:05;;;;;;;23.80;8.57;;;;;;;2.82;60.25;99021.59;5045505;28;20428;-68
2022/01/31 05:20:32;;;;;;;23.35;8.25;;;;;;;2.89;60.08;99024.69;5045985;28;20143;-70
2022/01/31 05:22:59;;;;;;;21.23;10.10;;;;;;;2.75;60.36;99011.66;5046507;28;20048;-73
2022/01/31 05:25:26;;;;;;;25.95;9.25;;;;;;;2.74;60.35;99021.25;5046502;28;20528;-73
2022/01/31 05:27:54;;;;;;;20.58;7.78;;;;;;;2.74;60.23;99005.59;5048267;28;20049;-76
2022/01/31 05:30:23;;;;;;;26.77;9.02;;;;;;;2.79;60.10;99011.38;5049217;28;20045;-73
2022/01/31 05:32:50;;;;;;;21.40;7.35;;;;;;;2.79;60.06;99014.00;5048453;28;20052;-72
2022/01/31 05:35:17;;;;;;;19.70;8.18;;;;;;;2.79;60.09;99008.78;5047167;28;20378;-76
2022/01/31 05:37:44;;;;;;;19.17;6.35;;;;;;;2.72;60.20;98990.97;5046032;28;20041;-74
2022/01/31 05:40:12;;;;;;;23.33;9.80;;;;;;;2.76;60.53;99008.94;5049029;28;20120;-78
2022/01/31 05:42:39;;;;;;;25.75;8.43;;;;;;;2.67;60.75;98989.47;5050547;28;20551;-70
2022/01/31 05:45:07;;;;;;;25.58;9.30;;;;;;;2.68;60.49;98996.38;5047525;28;20087;-75
2022/01/31 05:47:37;;;;;;;24.98;11.45;;;;;;;2.66;60.74;98995.59;5051046;28;20711;-77
2022/01/31 05:50:06;;;;;;;25.67;9.80;;;;;;;2.66;61.00;99000.00;5015291;28;20051;-73
2022/01/31 05:52:33;;;;;;;23.80;7.70;;;;;;;2.76;60.81;98998.50;5050602;28;20055;-74
2022/01/31 05:55:01;;;;;;;25.85;10.23;;;;;;;2.80;60.62;98993.97;5048846;28;20061;-73
2022/01/31 05:57:29;;;;;;;19.33;8.93;;;;;;;2.80;60.40;98994.78;5049061;28;20143;-73
2022/01/31 05:59:55;;;;;;;21.90;8.20;;;;;;;2.88;60.51;98996.91;5048725;28;20051;-71
2022/01/31 06:02:22;;;;;;;22.67;7.88;;;;;;;2.92;60.33;98987.13;5048850;28;20055;-73
2022/01/31 06:04:51;;;;;;;26.60;8.23;;;;;;;2.96;60.07;98989.47;5046853;28;20136;-70
2022/01/31 06:07:18;;;;;;;22.65;6.85;;;;;;;2.99;59.85;98999.72;5045851;28;20147;-71
2022/01/31 06:09:45;;;;;;;20.02;8.05;;;;;;;2.97;60.01;98987.69;5047863;28;20164;-72
2022/01/31 06:12:12;;;;;;;30.80;9.88;;;;;;;2.97;60.09;98990.31;5049122;28;20052;-75
2022/01/31 06:14:40;;;;;;;24.63;11.05;;;;;;;2.90;60.18;98983.78;5051292;28;20060;-76
2022/01/31 06:17:07;;;;;;;19.90;7.13;;;;;;;2.93;60.32;98991.44;5052963;28;20048;-75
2022/01/31 06:19:34;;;;;;;24.13;7.22;;;;;;;2.94;60.18;98990.53;5048017;28;20132;-72
2022/01/31 06:22:03;;;;;;;28.98;8.65;;;;;;;2.99;60.13;98985.81;5050085;28;20136;-70
2022/01/31 06:24:30;;;;;;;26.63;8.45;;;;;;;2.96;60.16;98993.88;5062052;28;20057;-70
2022/01/31 06:26:58;;;;;;;23.88;9.25;;;;;;;2.99;60.03;98989.28;5064929;28;20077;-71
2022/01/31 06:29:26;;;;;;;20.15;8.23;;;;;;;3.03;60.03;98982.13;5066066;28;20064;-68
2022/01/31 06:31:53;;;;;;;38.58;17.83;;;;;;;2.99;60.39;98991.03;5066608;28;20045;-71
2022/01/31 06:34:20;;;;;;;28.10;10.10;;;;;;;2.97;60.14;98985.94;5063983;28;20068;-72
2022/01/31 06:36:47;;;;;;;26.08;8.98;;;;;;;2.90;60.17;98989.88;5060157;28;20121;-73
2022/01/31 06:39:16;;;;;;;32.42;10.48;;;;;;;2.83;60.42;98989.41;5039648;28;20065;-74
2022/01/31 06:41:43;;;;;;;15.48;5.78;;;;;;;2.87;60.38;98990.88;5034808;28;20049;-73
2022/01/31 06:44:10;;;;;;;39.65;11.75;;;;;;;2.81;60.55;98986.03;5031092;28;20060;-69
2022/01/31 06:46:37;;;;;;;23.15;10.00;;;;;;;2.83;60.21;98996.38;5027810;28;20122;-72
2022/01/31 06:49:04;;;;;;;31.13;11.93;;;;;;;2.83;60.26;98986.78;5030460;28;20049;-71
2022/01/31 06:51:31;;;;;;;20.77;8.80;;;;;;;2.82;60.32;98997.31;5030591;28;20045;-76
2022/01/31 06:54:00;;;;;;;18.20;9.20;;;;;;;2.79;60.22;98985.31;5028803;28;20555;-70
2022/01/31 06:56:31;;;;;;;24.38;10.70;;;;;;;2.71;60.29;98979.69;5025713;28;20046;-72
2022/01/31 06:58:58;;;;;;;35.20;13.30;;;;;;;2.70;60.37;98987.63;5025111;28;20057;-75
2022/01/31 07:01:26;;;;;;;23.38;9.45;;;;;;;2.72;60.16;98978.78;5023795;28;20177;-71
2022/01/31 07:03:55;;;;;;;24.70;10.02;;;;;;;2.68;60.23;98979.88;5026300;28;20121;-72
2022/01/31 07:06:23;;;;;;;27.42;12.43;;;;;;;2.73;60.11;98972.63;5025077;28;20103;-73
2022/01/31 07:08:52;;;;;;;30.55;11.40;;;;;;;2.72;60.16;98967.50;5025979;28;20061;-71
2022/01/31 07:11:23;;;;;;;34.20;10.18;;;;;;;2.79;59.93;98974.88;5025051;28;20071;-72
2022/01/31 07:14:01;;;;;;;27.52;10.43;;;;;;;2.79;59.75;98964.44;5026839;28;20084;-71
2022/01/31 07:16:28;;;;;;;25.38;9.98;;;;;;;2.84;59.58;98966.75;5024189;28;20046;-70
2022/01/31 07:19:02;;;;;;;29.58;10.48;;;;;;;2.92;59.35;98969.75;5024075;28;20061;-72
2022/01/31 07:21:36;;;;;;;21.05;10.18;;;;;;;2.91;59.21;98968.06;5025733;28;20129;-73
2022/01/31 07:24:16;;;;;;;24.98;11.82;;;;;;;2.90;59.19;98953.34;5025383;28;20052;-75
2022/01/31 07:26:44;;;;;;;31.42;9.48;;;;;;;2.94;59.11;98970.47;5026832;28;20041;-72
2022/01/31 07:29:13;;;;;;;21.23;7.57;;;;;;;2.99;59.22;98967.56;5024576;28;20049;-70
2022/01/31 07:31:41;;;;;;;24.13;9.02;;;;;;;3.00;59.09;98967.47;5024332;28;20361;-71
2022/01/31 07:34:08;;;;;;;26.17;10.73;;;;;;;3.03;59.26;98964.69;5024780;28;20163;-70
2022/01/31 07:36:36;;;;;;;23.13;9.20;;;;;;;3.06;59.12;98958.44;5023655;28;20125;-72
2022/01/31 07:39:04;;;;;;;28.52;10.27;;;;;;;3.08;59.23;98953.97;5024733;28;20791;-73
2022/01/31 07:41:31;;;;;;;24.02;11.77;;;;;;;3.05;59.18;98946.34;5034079;28;20580;-72
2022/01/31 07:43:58;;;;;;;29.48;10.88;;;;;;;3.01;59.25;98937.03;5044190;28;20140;-74
2022/01/31 07:46:28;;;;;;;22.80;9.15;;;;;;;3.06;59.45;98942.78;5043753;28;20128;-74
2022/01/31 07:48:55;;;;;;;28.40;11.27;;;;;;;3.02;59.67;98941.31;5045490;28;20146;-73
2022/01/31 07:51:23;;;;;;;26.63;9.65;;;;;;;3.07;59.52;98928.81;5044196;28;20202;-71
2022/01/31 07:53:51;;;;;;;23.42;11.18;;;;;;;3.08;59.47;98924.44;5042421;28;20760;-70
2022/01/31 07:56:18;;;;;;;23.33;9.13;;;;;;;3.12;59.04;98929.38;5046021;28;20095;-71
2022/01/31 07:58:46;;;;;;;25.92;10.80;;;;;;;3.03;59.22;98914.31;5048104;28;20072;-70
2022/01/31 08:01:13;;;;;;;30.48;11.77;;;;;;;3.01;59.36;98914.41;5049365;28;20041;-71
2022/01/31 08:03:43;;;;;;;27.92;13.73;;;;;;;3.06;59.17;98916.69;5044266;28;20128;-73
2022/01/31 08:06:11;;;;;;;24.65;9.98;;;;;;;3.09;58.97;98916.50;5042015;28;20060;-71
2022/01/31 08:08:38;;;;;;;26.50;7.20;;;;;;;3.24;58.80;98927.75;5042327;28;20048;-69
2022/01/31 08:11:05;;;;;;;28.50;11.23;;;;;;;3.18;58.74;98910.72;5040591;28;20059;-70
2022/01/31 08:13:33;;;;;;;25.85;11.43;;;;;;;3.16;58.37;98909.97;5044279;28;20041;-75
2022/01/31 08:16:09;;;;;;;25.40;9.77;;;;;;;3.18;58.50;98908.09;5042590;28;20142;-70
2022/01/31 08:18:38;;;;;;;22.55;9.88;;;;;;;3.23;58.26;98919.09;5046883;28;20663;-73
2022/01/31 08:21:06;;;;;;;22.70;10.45;;;;;;;3.23;58.29;98907.81;5051225;28;20049;-69
2022/01/31 08:23:34;;;;;;;20.20;8.85;;;;;;;3.27;57.96;98913.69;5044324;28;20136;-76
2022/01/31 08:26:02;;;;;;;30.75;12.57;;;;;;;3.30;57.90;98909.09;5042306;28;20049;-72
2022/01/31 08:28:37;;;;;;;26.60;11.43;;;;;;;3.30;58.09;98916.09;5040899;28;20049;-70
2022/01/31 08:31:12;;;;;;;28.98;10.35;;;;;;;3.36;57.79;98913.91;5040487;28;20128;-70
2022/01/31 08:33:44;;;;;;;32.88;13.70;;;;;;;3.47;57.68;98904.56;5040101;28;20063;-69
2022/01/31 08:36:13;;;;;;;36.63;13.05;;;;;;;3.55;57.65;98913.56;5040607;28;20049;-74
2022/01/31 08:38:43;;;;;;;27.30;9.82;;;;;;;3.71;57.22;98909.94;5025959;28;20088;-74
2022/01/31 08:41:11;;;;;;;26.50;12.15;;;;;;;3.66;56.76;98912.03;5044151;28;20045;-77
2022/01/31 08:43:40;;;;;;;28.35;10.70;;;;;;;3.68;56.73;98897.09;5042025;28;20623;-73
2022/01/31 08:46:08;;;;;;;24.58;12.45;;;;;;;3.63;56.86;98900.00;5024670;28;20073;-71
2022/01/31 08:48:36;;;;;;;20.02;10.30;;;;;;;3.62;56.80;98901.78;5040575;28;20101;-74
2022/01/31 08:51:04;;;;;;;28.90;10.57;;;;;;;3.66;57.12;98907.66;5041833;28;20052;-70
2022/01/31 08:53:39;;;;;;;30.15;13.65;;;;;;;3.80;57.03;98907.59;5042966;28;20045;-75
2022/01/31 08:56:08;;;;;;;32.60;12.23;;;;;;;3.74;56.59;98902.75;5042965;28;20048;-77
2022/01/31 08:58:41;;;;;;;29.20;11.00;;;;;;;3.64;57.00;98909.53;5043122;28;20076;-72
2022/01/31 09:01:09;;;;;;;25.65;11.65;;;;;;;3.64;56.56;98902.53;5041691;28;20055;-71
2022/01/31 09:03:44;;;;;;;31.88;10.77;;;;;;;3.61;56.28;98897.50;5042229;28;20135;-71
2022/01/31 09:06:13;;;;;;;22.85;10.55;;;;;;;3.69;56.29;98898.78;5041393;28;20049;-76
2022/01/31 09:08:42;;;;;;;24.65;9.82;;;;;;;3.80;56.41;98901.53;5041319;28;20045;-72
2022/01/31 09:11:13;;;;;;;25.55;11.45;;;;;;;3.78;56.44;98898.16;5040198;28;20547;-69
2022/01/31 09:13:40;;;;;;;18.30;9.27;;;;;;;3.88;56.46;98888.78;5044679;28;20048;-71
2022/01/31 09:16:08;;;;;;;29.33;13.05;;;;;;;3.87;56.11;98889.75;5041124;28;20465;-71
2022/01/31 09:18:36;;;;;;;27.15;11.40;;;;;;;3.88;55.85;98887.94;5040238;28;20666;-71
2022/01/31 09:21:04;;;;;;;23.08;9.00;;;;;;;3.93;56.24;98891.09;5039549;28;20049;-69
2022/01/31 09:23:33;;;;;;;26.15;11.35;;;;;;;3.98;55.77;98879.41;5038981;28;20679;-71
2022/01/31 09:26:01;;;;;;;24.92;7.85;;;;;;;4.02;55.92;98874.81;5041039;28;20041;-72
2022/01/31 09:28:29;;;;;;;20.80;8.82;;;;;;;4.09;55.75;98878.66;5041665;28;20079;-72
2022/01/31 09:30:56;;;;;;;20.70;9.82;;;;;;;4.10;55.64;98882.13;5041417;28;20098;-68
2022/01/31 09:33:23;;;;;;;24.92;11.35;;;;;;;4.09;55.45;98878.66;5041194;28;20086;-69
2022/01/31 09:35:50;;;;;;;23.08;10.88;;;;;;;4.01;55.72;98875.72;5039184;28;20076;-69
2022/01/31 09:38:22;;;;;;;26.30;9.85;;;;;;;3.98;55.81;98868.09;5041178;28;20125;-70
2022/01/31 09:40:49;;;;;;;23.88;10.00;;;;;;;4.01;54.87;98868.72;5040301;28;20473;-70
2022/01/31 09:46:18;;;;;;;22.17;9.40;;;;;;;4.02;54.68;98856.50;5039792;28;20133;-71
2022/01/31 09:48:45;;;;;;;19.10;9.27;;;;;;;3.96;54.63;98857.78;5046128;28;20132;-73
2022/01/31 09:51:15;;;;;;;20.35;10.00;;;;;;;4.09;54.61;98854.28;5040813;28;20107;-70
2022/01/31 09:53:43;;;;;;;20.20;9.30;;;;;;;4.09;54.92;98833.41;5043759;28;20135;-70
2022/01/31 09:56:14;;;;;;;20.65;9.13;;;;;;;4.18;54.61;98838.00;5045772;28;20041;-72
2022/01/31 09:58:43;;;;;;;27.48;9.75;;;;;;;4.31;54.00;98838.81;5044958;28;20041;-73
2022/01/31 10:01:12;;;;;;;19.30;9.02;;;;;;;4.36;53.59;98833.28;5042321;28;20123;-75
2022/01/31 10:03:48;;;;;;;24.45;11.70;;;;;;;4.45;53.58;98837.03;5043968;28;20577;-74
2022/01/31 10:06:21;;;;;;;;;;;;;;;4.69;53.05;98827.44;5039700;28;20049;-69
2022/01/31 10:08:48;;;;;;;20.73;8.60;;;;;;;4.47;53.51;98827.31;5044337;28;19959;-70
2022/01/31 10:11:29;;;;;;;24.83;9.98;;;;;;;4.43;53.66;98818.84;5054522;28;20053;-71
2022/01/31 10:16:54;;;;;;;19.13;8.20;;;;;;;4.74;53.06;98820.13;5051583;28;20048;-71
2022/01/31 10:19:21;;;;;;;20.85;9.45;;;;;;;4.66;52.98;98819.81;5046736;28;20045;-72
2022/01/31 10:22:03;;;;;;;16.80;7.25;;;;;;;4.69;53.01;98810.94;5045606;28;20048;-75
2022/01/31 10:24:31;;;;;;;21.25;7.38;;;;;;;4.67;53.00;98823.28;5045469;28;20040;-70
2022/01/31 10:26:58;;;;;;;21.00;8.27;;;;;;;4.93;52.88;98809.19;5042802;28;20049;-74
2022/01/31 10:29:27;;;;;;;24.08;7.82;;;;;;;4.79;52.89;98809.34;5039396;28;20048;-75
2022/01/31 10:32:04;;;;;;;25.83;11.23;;;;;;;4.69;52.65;98800.47;5040673;28;20048;-72
2022/01/31 10:34:34;;;;;;;21.08;8.30;;;;;;;4.69;51.82;98793.44;5040802;28;20041;-74
2022/01/31 10:37:03;;;;;;;21.48;8.52;;;;;;;4.66;51.69;98803.31;5038810;28;20084;-72
2022/01/31 10:45:30;;;;;;;20.08;9.88;;;;;;;4.57;52.46;98799.56;5040631;28;20087;-76
2022/01/31 10:53:51;;;;;;;22.15;10.02;;;;;;;4.33;51.31;98792.50;5041449;28;20328;-70
2022/01/31 10:56:18;;;;;;;20.52;7.35;;;;;;;4.25;51.46;98779.16;5042727;28;20053;-73
2022/01/31 10:59:05;;;;;;;17.58;8.60;;;;;;;4.45;51.17;98774.28;5043224;28;20148;-73
2022/01/31 11:01:33;;;;;;;23.50;9.73;;;;;;;4.48;50.75;98779.28;5042818;28;20129;-75
2022/01/31 11:04:05;;;;;;;29.63;14.68;;;;;;;4.35;51.00;98768.88;5044644;28;20085;-75
2022/01/31 11:06:34;;;;;;;24.52;11.30;;;;;;;4.34;51.22;98772.41;5041628;28;20049;-73
2022/01/31 11:09:03;;;;;;;22.80;11.70;;;;;;;4.33;51.16;98762.94;5040937;28;20073;-75
2022/01/31 11:11:32;;;;;;;31.63;11.25;;;;;;;4.37;50.74;98765.19;5043832;28;20114;-72
2022/01/31 11:14:00;;;;;;;35.60;14.85;;;;;;;4.54;50.96;98771.84;5051117;28;20053;-71
2022/01/31 11:16:28;;;;;;;44.38;18.77;;;;;;;4.66;50.88;98764.91;5054777;28;20056;-74
2022/01/31 11:19:03;;;;;;;23.20;11.70;;;;;;;4.62;50.19;98765.25;5051490;28;20053;-72
2022/01/31 11:21:34;;;;;;;58.10;21.75;;;;;;;4.56;50.70;98764.75;5049374;28;20049;-75
2022/01/31 11:24:02;;;;;;;71.10;23.17;;;;;;;4.67;50.79;98768.38;5045749;28;20052;-72
2022/01/31 11:26:36;;;;;;;43.40;14.50;;;;;;;4.75;50.36;98774.72;5046961;28;20040;-74
2022/01/31 11:29:06;;;;;;;33.95;12.85;;;;;;;4.94;49.75;98768.16;5046512;28;20049;-69
2022/01/31 11:31:35;;;;;;;25.10;11.30;;;;;;;5.04;49.19;98761.31;5044556;28;20049;-72
2022/01/31 11:34:05;;;;;;;24.05;11.52;;;;;;;5.17;49.12;98767.28;5046344;28;20080;-73
2022/01/31 11:36:35;;;;;;;24.05;11.32;;;;;;;5.32;48.98;98772.34;5051610;28;20051;-72
2022/01/31 11:39:05;;;;;;;34.33;11.18;;;;;;;5.28;47.91;98773.53;5051947;28;20045;-71
2022/01/31 11:41:34;;;;;;;22.10;9.15;;;;;;;5.21;47.36;98778.38;5052646;28;20102;-71
2022/01/31 11:44:12;;;;;;;18.63;8.23;;;;;;;5.11;47.61;98775.59;5053262;28;20120;-71
2022/01/31 11:46:40;;;;;;;14.25;7.93;;;;;;;4.92;46.91;98776.09;5047487;28;20067;-70
2022/01/31 11:49:13;;;;;;;18.45;10.13;;;;;;;4.76;47.57;98771.16;5050974;28;20052;-72
2022/01/31 11:52:04;;;;;;;16.98;7.25;;;;;;;4.69;47.74;98767.31;5058924;28;20316;-74
2022/01/31 11:54:31;;;;;;;14.63;5.97;;;;;;;4.68;47.86;98760.41;5056917;28;20120;-71
2022/01/31 11:56:58;;;;;;;13.80;5.85;;;;;;;4.65;47.89;98759.81;5062034;28;20072;-72